Arita Maru — JD2435 — position and weather

sailwx.info

Track history (hours):
 
Tides and Currents Weather Stations Pressure Air Temp Water Temp Dewpoint Dewpoint Depression Visibility Wind Speed Wind Dir Waves Ship Positions

Arita Maru

Last reported at 2018-Jun-17 12:09 UTC. Time now 2018-Jun-22 05:35 UTC.
Position N 35°04' E 139°44'.

Length 73 m; draft 4.3 m.

Type: Cargo ship. MMSI: 431000234.

Date/timePositionNaut miles runAvg speedWind from/ knotsBaromVisibWave heightAir tempDewpointWater temp
2018-Jun-17 12:09N 35°04' E 139°44'311.7
2018-Jun-17 11:54N 35°07' E 139°45'512.0
2018-Jun-17 11:30N 35°12' E 139°46'611.4
2018-Jun-17 11:01N 35°17' E 139°45'611.8
2018-Jun-17 10:30N 35°23' E 139°42'611.4
2018-Jun-17 10:00N 35°27' E 139°47'611.7
2018-Jun-17 09:29N 35°31' E 139°54'4 0.1
2018-Jun-16 01:52N 35°35' E 139°54'410.1
2018-Jun-16 01:29N 35°37' E 139°49'2 0.0
2018-Jun-14 03:56N 35°35' E 139°51'7 9.1
2018-Jun-14 03:13N 35°29' E 139°52'311.0
2018-Jun-14 02:56N 35°26' E 139°49'511.0
2018-Jun-14 02:30N 35°23' E 139°46'510.2
2018-Jun-14 02:00N 35°17' E 139°45'5 9.9
2018-Jun-14 01:30N 35°13' E 139°47'24710.3
2018-Jun-13 01:29N 33°50' E 135°05'612.2
2018-Jun-13 01:00N 33°55' E 135°02'611.8
2018-Jun-13 00:30N 34°01' E 135°02'611.7
2018-Jun-13 00:00N 34°06' E 135°02'611.7
2018-Jun-12 23:30N 34°12' E 135°02'611.4
2018-Jun-12 23:00N 34°18' E 135°04'611.1
2018-Jun-12 22:30N 34°23' E 135°07'611.4
2018-Jun-12 22:00N 34°27' E 135°12'611.3
2018-Jun-12 21:30N 34°31' E 135°17'611.2
2018-Jun-12 20:59N 34°35' E 135°21'5 0.1
2018-Jun-11 06:37N 34°35' E 135°27'  
2018-Jun-07 23:04N 34°34' E 135°27'0 0.0
2018-Jun-07 22:46N 34°34' E 135°27'0 0.0
2018-Jun-07 22:28N 34°34' E 135°27'0 0.0
2018-Jun-07 21:58N 34°34' E 135°27'0 0.0
2018-Jun-07 21:28N 34°34' E 135°27'0 0.0
2018-Jun-07 20:58N 34°34' E 135°27'0 0.0
2018-Jun-07 20:22N 34°34' E 135°27'0 0.0
2018-Jun-07 19:58N 34°34' E 135°27'0 0.0
2018-Jun-07 19:22N 34°34' E 135°27'0 0.0
2018-Jun-07 18:46N 34°34' E 135°27'0 0.0
2018-Jun-07 18:22N 34°34' E 135°27'0 0.0
2018-Jun-07 17:58N 34°34' E 135°27'0 0.0
2018-Jun-07 13:28N 34°34' E 135°27'0 0.0
2018-Jun-07 12:52N 34°34' E 135°27'0 0.0
2018-Jun-07 12:28N 34°34' E 135°27'  
Track history (hours):
 
Tides and Currents Weather Stations Pressure Air Temp Water Temp Dewpoint Dewpoint Depression Visibility Wind Speed Wind Dir Waves Ship Positions

Arita Maru

Last reported at 2018-Jun-17 12:09 UTC. Time now 2018-Jun-22 05:35 UTC.
Position N 35°04' E 139°44'.

Length 73 m; draft 4.3 m.

Type: Cargo ship. MMSI: 431000234.

Date/timePositionNaut miles runAvg speedWind from/ knotsBaromVisibWave heightAir tempDewpointWater temp
2018-Jun-17 12:09N 35°04' E 139°44'311.7
2018-Jun-17 11:54N 35°07' E 139°45'512.0
2018-Jun-17 11:30N 35°12' E 139°46'611.4
2018-Jun-17 11:01N 35°17' E 139°45'611.8
2018-Jun-17 10:30N 35°23' E 139°42'611.4
2018-Jun-17 10:00N 35°27' E 139°47'611.7
2018-Jun-17 09:29N 35°31' E 139°54'4 0.1
2018-Jun-16 01:52N 35°35' E 139°54'410.1
2018-Jun-16 01:29N 35°37' E 139°49'2 0.0
2018-Jun-14 03:56N 35°35' E 139°51'7 9.1
2018-Jun-14 03:13N 35°29' E 139°52'311.0
2018-Jun-14 02:56N 35°26' E 139°49'511.0
2018-Jun-14 02:30N 35°23' E 139°46'510.2
2018-Jun-14 02:00N 35°17' E 139°45'5 9.9
2018-Jun-14 01:30N 35°13' E 139°47'24710.3
2018-Jun-13 01:29N 33°50' E 135°05'612.2
2018-Jun-13 01:00N 33°55' E 135°02'611.8
2018-Jun-13 00:30N 34°01' E 135°02'611.7
2018-Jun-13 00:00N 34°06' E 135°02'611.7
2018-Jun-12 23:30N 34°12' E 135°02'611.4
2018-Jun-12 23:00N 34°18' E 135°04'611.1
2018-Jun-12 22:30N 34°23' E 135°07'611.4
2018-Jun-12 22:00N 34°27' E 135°12'611.3
2018-Jun-12 21:30N 34°31' E 135°17'611.2
2018-Jun-12 20:59N 34°35' E 135°21'5 0.1
2018-Jun-11 06:37N 34°35' E 135°27'  
2018-Jun-07 23:04N 34°34' E 135°27'0 0.0
2018-Jun-07 22:46N 34°34' E 135°27'0 0.0
2018-Jun-07 22:28N 34°34' E 135°27'0 0.0
2018-Jun-07 21:58N 34°34' E 135°27'0 0.0
2018-Jun-07 21:28N 34°34' E 135°27'0 0.0
2018-Jun-07 20:58N 34°34' E 135°27'0 0.0
2018-Jun-07 20:22N 34°34' E 135°27'0 0.0
2018-Jun-07 19:58N 34°34' E 135°27'0 0.0
2018-Jun-07 19:22N 34°34' E 135°27'0 0.0
2018-Jun-07 18:46N 34°34' E 135°27'0 0.0
2018-Jun-07 18:22N 34°34' E 135°27'0 0.0
2018-Jun-07 17:58N 34°34' E 135°27'0 0.0
2018-Jun-07 13:28N 34°34' E 135°27'0 0.0
2018-Jun-07 12:52N 34°34' E 135°27'0 0.0
2018-Jun-07 12:28N 34°34' E 135°27'  

Dump ship's entire track history